createdAt,value
2018-05-09T00:01:36.951Z,3.90
2018-05-09T00:04:05.249Z,3.77
2018-05-09T00:06:32.745Z,4.00
2018-05-09T00:09:00.245Z,3.87
2018-05-09T00:11:28.587Z,3.83
2018-05-09T00:13:56.182Z,4.20
2018-05-09T00:16:23.780Z,4.00
2018-05-09T00:18:51.318Z,4.07
2018-05-09T00:21:18.872Z,4.13
2018-05-09T00:23:46.366Z,3.73
2018-05-09T00:26:13.903Z,4.33
2018-05-09T00:28:41.429Z,3.97
2018-05-09T00:31:10.318Z,4.33
2018-05-09T00:33:38.590Z,4.27
2018-05-09T00:36:06.860Z,4.30
2018-05-09T00:38:35.155Z,4.23
2018-05-09T00:41:02.697Z,4.30
2018-05-09T00:43:30.981Z,4.30
2018-05-09T00:45:59.261Z,4.40
2018-05-09T00:48:27.554Z,4.50
2018-05-09T00:50:55.035Z,4.47
2018-05-09T00:53:22.590Z,4.33
2018-05-09T00:55:50.097Z,4.43
2018-05-09T00:58:18.402Z,5.10
2018-05-09T01:00:45.955Z,5.17
2018-05-09T01:03:13.453Z,4.77
2018-05-09T01:05:40.983Z,5.57
2018-05-09T01:08:08.489Z,5.90
2018-05-09T01:10:36.043Z,5.30
2018-05-09T01:13:03.540Z,5.07
2018-05-09T01:15:31.849Z,5.10
2018-05-09T01:18:00.317Z,5.37
2018-05-09T01:20:27.854Z,5.70
2018-05-09T01:22:56.110Z,5.47
2018-05-09T01:25:23.644Z,5.70
2018-05-09T01:27:51.181Z,5.53
2018-05-09T01:30:18.663Z,5.60
2018-05-09T01:32:46.195Z,5.27
2018-05-09T01:35:13.698Z,5.20
2018-05-09T01:37:41.231Z,5.53
2018-05-09T01:40:08.738Z,5.50
2018-05-09T01:42:37.046Z,6.47
2018-05-09T01:45:04.575Z,6.43
2018-05-09T01:47:32.851Z,5.90
2018-05-09T01:50:01.130Z,6.00
2018-05-09T01:52:28.646Z,6.20
2018-05-09T01:54:56.256Z,6.07
2018-05-09T01:57:23.704Z,6.30
2018-05-09T01:59:51.979Z,6.83
2018-05-09T02:02:20.250Z,6.60
2018-05-09T02:04:48.557Z,6.53
2018-05-09T02:07:16.093Z,6.10
2018-05-09T02:09:45.271Z,6.50
2018-05-09T02:12:14.392Z,6.43
2018-05-09T02:14:41.945Z,6.70
2018-05-09T02:17:09.466Z,6.80
2018-05-09T02:19:37.006Z,6.30
2018-05-09T02:22:04.502Z,7.40
2018-05-09T02:24:32.779Z,7.27
2018-05-09T02:27:01.048Z,7.07
2018-05-09T02:29:28.579Z,7.27
2018-05-09T02:31:56.099Z,7.30
2018-05-09T02:34:23.631Z,7.50
2018-05-09T02:36:51.920Z,7.33
2018-05-09T02:39:20.688Z,6.83
2018-05-09T02:41:48.187Z,7.33
2018-05-09T02:44:15.724Z,7.30
2018-05-09T02:46:44.064Z,6.83
2018-05-09T02:49:11.604Z,7.60
2018-05-09T02:51:39.134Z,7.93
2018-05-09T02:54:07.558Z,7.93
2018-05-09T02:56:35.124Z,8.03
2018-05-09T02:59:02.759Z,7.60
2018-05-09T03:01:30.846Z,8.30
2018-05-09T03:03:58.377Z,8.17
2018-05-09T03:06:25.888Z,8.30
2018-05-09T03:08:53.371Z,8.00
2018-05-09T03:11:21.661Z,8.63
2018-05-09T03:13:49.194Z,8.30
2018-05-09T03:16:17.461Z,8.10
2018-05-09T03:18:45.720Z,7.87
2018-05-09T03:21:13.233Z,7.90
2018-05-09T03:23:40.756Z,8.37
2018-05-09T03:26:09.040Z,8.00
2018-05-09T03:28:37.309Z,8.00
2018-05-09T03:31:05.587Z,7.93
2018-05-09T03:33:33.879Z,8.27
2018-05-09T03:36:02.307Z,8.33
2018-05-09T03:38:29.900Z,8.00
2018-05-09T03:40:58.908Z,8.37
2018-05-09T03:43:26.446Z,8.47
2018-05-09T03:45:54.712Z,8.53
2018-05-09T03:48:22.221Z,8.87
2018-05-09T03:50:49.749Z,8.97
2018-05-09T03:53:18.051Z,9.17
2018-05-09T03:55:46.337Z,8.77
2018-05-09T03:58:13.869Z,8.73
2018-05-09T04:00:42.921Z,8.70
2018-05-09T04:03:22.484Z,9.57
2018-05-09T04:06:02.606Z,8.73
2018-05-09T04:08:42.193Z,9.00
2018-05-09T04:11:11.242Z,10.10
2018-05-09T04:13:38.775Z,9.57
2018-05-09T04:16:06.257Z,9.50
2018-05-09T04:18:33.821Z,10.23
2018-05-09T04:21:01.435Z,9.50
2018-05-09T04:23:28.888Z,9.63
2018-05-09T04:25:56.414Z,10.37
2018-05-09T04:28:23.895Z,9.70
2018-05-09T04:30:52.923Z,9.60
2018-05-09T04:33:20.416Z,9.47
2018-05-09T04:35:48.441Z,9.33
2018-05-09T04:38:15.949Z,9.63
2018-05-09T04:40:43.464Z,9.73
2018-05-09T04:43:10.956Z,10.17
2018-05-09T04:45:38.472Z,10.00
2018-05-09T04:48:06.020Z,9.07
2018-05-09T04:50:34.292Z,9.67
2018-05-09T04:53:01.818Z,10.57
2018-05-09T04:55:29.352Z,9.00
2018-05-09T04:57:56.831Z,9.57
2018-05-09T05:00:24.356Z,9.80
2018-05-09T05:02:51.854Z,10.13
2018-05-09T05:05:19.351Z,10.00
2018-05-09T05:07:46.874Z,9.70
2018-05-09T05:10:14.380Z,9.83
2018-05-09T05:12:42.356Z,9.40
2018-05-09T05:15:09.854Z,9.63
2018-05-09T05:17:37.349Z,9.27
2018-05-09T05:20:04.870Z,9.03
2018-05-09T05:22:32.391Z,9.23
2018-05-09T05:25:00.001Z,8.73
2018-05-09T05:27:27.454Z,8.77
2018-05-09T05:29:55.713Z,9.03
2018-05-09T05:32:23.251Z,8.50
2018-05-09T05:34:51.227Z,9.13
2018-05-09T05:37:18.760Z,9.90
2018-05-09T05:39:47.009Z,9.27
2018-05-09T05:42:15.323Z,8.93
2018-05-09T05:44:42.828Z,8.60
2018-05-09T05:47:10.370Z,9.13
2018-05-09T05:49:38.827Z,8.23
2018-05-09T05:52:06.385Z,8.37
2018-05-09T05:54:33.880Z,8.07
2018-05-09T05:57:02.283Z,8.20
2018-05-09T05:59:30.549Z,8.33
2018-05-09T06:01:58.810Z,9.50
2018-05-09T06:04:26.335Z,8.47
2018-05-09T06:06:54.549Z,8.50
2018-05-09T06:09:22.841Z,7.90
2018-05-09T06:11:50.464Z,9.00
2018-05-09T06:14:18.034Z,8.57
2018-05-09T06:16:45.586Z,9.47
2018-05-09T06:19:13.140Z,8.97
2018-05-09T06:21:40.627Z,8.13
2018-05-09T06:24:08.956Z,8.23
2018-05-09T06:26:36.880Z,8.27
2018-05-09T06:29:10.267Z,8.20
2018-05-09T06:31:38.347Z,8.50
2018-05-09T06:34:07.796Z,8.80
2018-05-09T06:36:35.484Z,8.77
2018-05-09T06:39:03.038Z,8.10
2018-05-09T06:41:31.085Z,8.30
2018-05-09T06:44:00.267Z,7.83
2018-05-09T06:46:27.900Z,8.87
2018-05-09T06:48:56.989Z,9.27
2018-05-09T06:51:25.286Z,7.80
2018-05-09T06:53:52.824Z,8.17
2018-05-09T06:56:21.135Z,7.93
2018-05-09T06:58:48.927Z,7.63
2018-05-09T07:01:17.419Z,7.97
2018-05-09T07:03:45.798Z,8.27
2018-05-09T07:06:14.044Z,7.80
2018-05-09T07:08:41.537Z,7.07
2018-05-09T07:11:09.049Z,7.20
2018-05-09T07:13:36.592Z,7.37
2018-05-09T07:16:05.306Z,7.67
2018-05-09T07:18:33.684Z,7.47
2018-05-09T07:21:01.350Z,7.07
2018-05-09T07:23:28.912Z,6.93
2018-05-09T07:25:56.455Z,7.23
2018-05-09T07:28:24.013Z,7.40
2018-05-09T07:30:51.551Z,6.90
2018-05-09T07:33:19.079Z,7.03
2018-05-09T07:35:47.474Z,6.20
2018-05-09T07:38:15.772Z,6.27
2018-05-09T07:40:43.315Z,6.03
2018-05-09T07:43:11.616Z,5.53
2018-05-09T07:45:39.159Z,6.13
2018-05-09T07:48:07.470Z,6.67
2018-05-09T07:50:35.723Z,6.50
2018-05-09T07:53:03.258Z,6.63
2018-05-09T07:55:31.607Z,6.23
2018-05-09T07:57:59.852Z,5.80
2018-05-09T08:00:27.404Z,5.97
2018-05-09T08:02:54.917Z,6.30
2018-05-09T08:05:24.257Z,6.83
2018-05-09T08:07:51.909Z,6.07
2018-05-09T08:10:19.442Z,6.60
2018-05-09T08:12:47.776Z,6.00
2018-05-09T08:15:15.300Z,6.57
2018-05-09T08:17:44.274Z,6.67
2018-05-09T08:20:12.580Z,6.10
2018-05-09T08:22:40.148Z,6.23
2018-05-09T08:25:08.520Z,5.67
2018-05-09T08:27:36.064Z,6.30
2018-05-09T08:30:04.528Z,5.80
2018-05-09T08:32:31.963Z,5.90
2018-05-09T08:34:59.484Z,6.43
2018-05-09T08:37:27.020Z,6.67
2018-05-09T08:39:54.608Z,6.33
2018-05-09T08:42:22.220Z,5.33
2018-05-09T08:44:50.947Z,5.90
2018-05-09T08:47:18.480Z,6.30
2018-05-09T08:49:47.112Z,5.80
2018-05-09T08:52:14.673Z,5.90
2018-05-09T08:54:43.032Z,5.97
2018-05-09T08:57:10.710Z,5.53
2018-05-09T08:59:38.711Z,6.00
2018-05-09T09:02:07.049Z,5.63
2018-05-09T09:04:34.727Z,6.23
2018-05-09T09:07:02.364Z,5.67
2018-05-09T09:09:31.276Z,5.33
2018-05-09T09:11:59.726Z,6.03
2018-05-09T09:14:27.339Z,5.97
2018-05-09T09:16:54.944Z,6.27
2018-05-09T09:19:22.493Z,5.73
2018-05-09T09:21:50.030Z,5.53
2018-05-09T09:24:18.347Z,5.70
2018-05-09T09:26:47.044Z,5.40
2018-05-09T09:29:14.633Z,5.27
2018-05-09T09:31:42.147Z,5.23
2018-05-09T09:34:09.672Z,4.70
2018-05-09T09:36:40.426Z,4.43
2018-05-09T09:39:07.968Z,4.80
2018-05-09T09:41:36.258Z,5.00
2018-05-09T09:44:03.953Z,4.97
2018-05-09T09:46:31.499Z,4.30
2018-05-09T09:48:59.020Z,4.90
2018-05-09T09:51:27.364Z,4.50
2018-05-09T09:53:54.997Z,4.20
2018-05-09T09:56:22.708Z,4.40
2018-05-09T09:58:50.231Z,4.30
2018-05-09T10:01:17.781Z,4.43
2018-05-09T10:03:45.312Z,4.43
2018-05-09T10:06:13.619Z,4.40
2018-05-09T10:08:41.857Z,4.70
2018-05-09T10:11:10.787Z,5.00
2018-05-09T10:13:39.075Z,4.40
2018-05-09T10:16:06.667Z,4.13
2018-05-09T10:18:34.163Z,4.43
2018-05-09T10:21:03.325Z,4.30
2018-05-09T10:23:31.680Z,4.83
2018-05-09T10:25:59.211Z,4.07
2018-05-09T10:28:26.725Z,4.47
2018-05-09T10:30:55.855Z,4.43
2018-05-09T10:33:23.399Z,4.60
2018-05-09T10:35:50.923Z,4.77
2018-05-09T10:38:18.443Z,4.63
2018-05-09T10:40:46.742Z,4.43
2018-05-09T10:43:14.274Z,4.30
2018-05-09T10:45:41.799Z,4.70
2018-05-09T10:48:10.065Z,4.37
2018-05-09T10:50:38.579Z,4.93
2018-05-09T10:53:06.076Z,4.70
2018-05-09T10:55:33.605Z,4.37
2018-05-09T10:58:01.744Z,4.93
2018-05-09T11:00:30.036Z,4.33
2018-05-09T11:02:57.598Z,4.63
2018-05-09T11:05:25.129Z,4.03
2018-05-09T11:07:53.500Z,4.77
2018-05-09T11:10:21.268Z,4.40
2018-05-09T11:12:48.792Z,4.57
2018-05-09T11:15:16.290Z,4.53
2018-05-09T11:17:44.614Z,4.37
2018-05-09T11:20:12.176Z,4.30
2018-05-09T11:22:39.741Z,4.20
2018-05-09T11:25:07.287Z,4.47
2018-05-09T11:27:34.782Z,4.53
2018-05-09T11:30:02.299Z,4.27
2018-05-09T11:32:31.165Z,4.27
2018-05-09T11:34:58.781Z,4.17
2018-05-09T11:37:27.156Z,4.70
2018-05-09T11:39:55.399Z,4.60
2018-05-09T11:42:22.954Z,4.50
2018-05-09T11:44:51.093Z,4.87
2018-05-09T11:47:19.433Z,4.80
2018-05-09T11:49:46.984Z,4.33
2018-05-09T11:52:15.009Z,5.00
2018-05-09T11:54:43.291Z,4.87
2018-05-09T11:57:11.674Z,5.00
2018-05-09T11:59:39.334Z,5.00
2018-05-09T12:02:06.895Z,4.80
2018-05-09T12:04:35.203Z,4.57
2018-05-09T12:07:02.752Z,5.20
2018-05-09T12:09:30.289Z,4.97
2018-05-09T12:11:57.823Z,4.50
2018-05-09T12:14:25.450Z,4.60
2018-05-09T12:16:53.058Z,4.57
2018-05-09T12:19:20.657Z,4.80
2018-05-09T12:21:48.173Z,5.00
2018-05-09T12:24:16.523Z,4.67
2018-05-09T12:26:44.038Z,4.80
